createdAt,value
2023-03-07T00:02:19.126Z,3.93
2023-03-07T00:06:20.955Z,3.90
2023-03-07T00:10:22.360Z,3.70
2023-03-07T00:14:23.814Z,3.70
2023-03-07T00:18:26.705Z,3.50
2023-03-07T00:22:28.165Z,3.47
2023-03-07T00:26:29.688Z,3.30
2023-03-07T00:30:31.210Z,3.03
2023-03-07T00:34:34.387Z,3.60
2023-03-07T00:38:36.258Z,3.40
2023-03-07T00:42:37.829Z,3.27
2023-03-07T00:46:39.290Z,3.30
2023-03-07T00:50:42.181Z,2.93
2023-03-07T00:54:43.647Z,3.23
2023-03-07T00:58:45.649Z,2.90
2023-03-07T01:02:47.136Z,3.10
2023-03-07T01:06:49.898Z,3.20
2023-03-07T01:10:51.367Z,2.97
2023-03-07T01:14:52.860Z,2.97
2023-03-07T01:18:55.162Z,3.03
2023-03-07T01:23:01.700Z,3.30
2023-03-07T01:27:03.647Z,3.30
2023-03-07T01:31:05.318Z,3.13
2023-03-07T01:35:07.743Z,3.10
2023-03-07T01:39:13.386Z,2.70
2023-03-07T01:43:26.990Z,3.00
2023-03-07T01:47:28.799Z,3.30
2023-03-07T01:51:30.991Z,3.70
2023-03-07T01:55:36.117Z,2.87
2023-03-07T01:59:42.419Z,3.30
2023-03-07T02:03:48.702Z,3.30
2023-03-07T02:07:52.770Z,3.60
2023-03-07T02:11:55.923Z,3.57
2023-03-07T02:15:59.808Z,4.57
2023-03-07T02:20:13.816Z,4.17
2023-03-07T02:24:26.224Z,4.00
2023-03-07T02:28:28.935Z,4.60
2023-03-07T02:32:30.586Z,4.80
2023-03-07T02:36:34.773Z,4.33
2023-03-07T02:40:36.589Z,4.63
2023-03-07T02:44:39.687Z,4.87
2023-03-07T02:48:41.347Z,4.60
2023-03-07T02:52:42.940Z,4.57
2023-03-07T02:56:45.343Z,4.17
2023-03-07T03:00:48.094Z,4.37
2023-03-07T03:04:49.753Z,4.60
2023-03-07T03:08:51.338Z,3.83
2023-03-07T03:12:52.791Z,4.00
2023-03-07T03:16:56.587Z,4.10
2023-03-07T03:20:58.202Z,3.67
2023-03-07T03:24:59.608Z,4.07
2023-03-07T03:29:01.694Z,4.20
2023-03-07T03:33:04.638Z,4.00
2023-03-07T03:37:06.089Z,4.43
2023-03-07T03:41:12.886Z,4.17
2023-03-07T03:45:14.482Z,4.97
2023-03-07T03:49:17.436Z,4.20
2023-03-07T03:53:18.794Z,4.73
2023-03-07T03:57:20.260Z,4.77
2023-03-07T04:01:24.935Z,4.60
2023-03-07T04:05:33.206Z,4.20
2023-03-07T04:09:34.790Z,4.70
2023-03-07T04:13:36.926Z,4.40
2023-03-07T04:17:38.598Z,4.73
2023-03-07T04:21:41.673Z,4.70
2023-03-07T04:25:47.604Z,4.77
2023-03-07T04:29:48.988Z,5.17
2023-03-07T04:33:51.136Z,5.00
2023-03-07T04:37:54.119Z,4.83
2023-03-07T04:41:55.736Z,5.20
2023-03-07T04:45:57.199Z,5.57
2023-03-07T04:49:58.842Z,5.83
2023-03-07T04:54:01.935Z,5.60
2023-03-07T04:58:03.414Z,6.30
2023-03-07T05:02:05.921Z,6.00
2023-03-07T05:06:10.465Z,6.17
2023-03-07T05:10:13.449Z,6.50
2023-03-07T05:14:14.920Z,6.40
2023-03-07T05:18:16.365Z,6.20
2023-03-07T05:22:17.828Z,6.77
2023-03-07T05:26:20.617Z,5.93
2023-03-07T05:30:22.067Z,6.53
2023-03-07T05:34:23.459Z,6.73
2023-03-07T05:38:24.824Z,6.57
2023-03-07T05:42:27.596Z,6.40
2023-03-07T05:46:29.054Z,6.03
2023-03-07T05:50:30.633Z,6.10
2023-03-07T05:54:32.123Z,5.77
2023-03-07T05:58:34.851Z,7.30
2023-03-07T06:02:36.292Z,6.37
2023-03-07T06:06:37.809Z,6.13
2023-03-07T06:10:39.239Z,6.80
2023-03-07T06:19:11.565Z,5.93
2023-03-07T06:23:13.451Z,6.17
2023-03-07T06:27:14.888Z,6.17
2023-03-07T06:31:19.054Z,6.10
2023-03-07T06:35:20.847Z,6.73
2023-03-07T06:39:22.447Z,6.40
2023-03-07T06:43:23.940Z,6.60
2023-03-07T06:47:26.922Z,7.10
2023-03-07T06:51:28.371Z,6.77
2023-03-07T06:55:30.327Z,6.00
2023-03-07T06:59:31.697Z,6.20
2023-03-07T07:03:34.426Z,6.57
2023-03-07T07:07:35.899Z,6.03
2023-03-07T07:11:37.531Z,6.13
2023-03-07T07:15:38.983Z,6.20
2023-03-07T07:19:41.778Z,5.97
2023-03-07T07:23:43.246Z,5.73
2023-03-07T07:27:44.935Z,5.27
2023-03-07T07:31:46.459Z,5.23
2023-03-07T07:35:49.309Z,4.97
2023-03-07T07:39:51.288Z,4.73
2023-03-07T07:43:53.241Z,4.40
2023-03-07T07:47:54.715Z,4.23
2023-03-07T07:51:57.490Z,4.33
2023-03-07T07:55:59.159Z,4.20
2023-03-07T08:00:00.597Z,4.33
2023-03-07T08:04:02.020Z,4.40
2023-03-07T08:08:04.976Z,4.10
2023-03-07T08:12:07.491Z,4.13
2023-03-07T08:16:10.602Z,3.90
2023-03-07T08:20:12.508Z,3.83
2023-03-07T08:24:15.567Z,3.67
2023-03-07T08:28:17.082Z,3.60
2023-03-07T08:32:18.504Z,3.40
2023-03-07T08:36:20.131Z,3.30
2023-03-07T08:40:23.748Z,3.20
2023-03-07T08:44:25.276Z,3.40
2023-03-07T08:48:27.290Z,4.13
2023-03-07T08:52:28.736Z,3.40
2023-03-07T08:56:31.496Z,4.00
2023-03-07T09:00:33.164Z,4.00
2023-03-07T09:04:34.655Z,3.40
2023-03-07T09:08:36.091Z,4.20
2023-03-07T09:12:38.865Z,3.80
2023-03-07T09:16:40.669Z,3.90
2023-03-07T09:20:42.202Z,4.20
2023-03-07T09:24:43.648Z,4.27
2023-03-07T09:28:46.674Z,4.17
2023-03-07T09:32:49.364Z,4.90
2023-03-07T09:36:50.988Z,4.80
2023-03-07T09:40:52.410Z,4.73
2023-03-07T09:45:11.201Z,4.57
2023-03-07T09:49:19.346Z,4.83
2023-03-07T09:53:31.069Z,5.37
2023-03-07T09:57:34.483Z,4.70
2023-03-07T10:01:39.297Z,5.30
2023-03-07T10:05:45.081Z,5.30
2023-03-07T10:09:46.734Z,5.00
2023-03-07T10:14:01.011Z,4.80
2023-03-07T10:18:16.492Z,3.80
2023-03-07T10:22:27.036Z,3.40
2023-03-07T10:26:32.295Z,3.50
2023-03-07T10:30:33.708Z,3.40
2023-03-07T10:34:38.515Z,3.20
2023-03-07T10:38:47.566Z,3.47
2023-03-07T10:42:49.173Z,3.20
2023-03-07T10:46:57.453Z,3.80
2023-03-07T10:51:12.411Z,3.83
2023-03-07T10:55:31.502Z,3.80
2023-03-07T10:59:33.564Z,4.70
2023-03-07T11:03:52.213Z,4.20
2023-03-07T11:07:55.973Z,4.80
2023-03-07T11:11:59.379Z,4.73
2023-03-07T11:16:20.017Z,4.63
2023-03-07T11:20:23.534Z,4.60
2023-03-07T11:24:28.077Z,4.90
2023-03-07T11:28:31.670Z,4.60
2023-03-07T11:32:35.870Z,4.90
2023-03-07T11:36:40.041Z,4.40
2023-03-07T11:40:51.119Z,5.07
2023-03-07T11:44:54.450Z,5.23
2023-03-07T11:49:05.363Z,5.37
2023-03-07T11:53:42.823Z,5.00
2023-03-07T11:58:00.200Z,4.50
2023-03-07T12:02:06.328Z,5.10
2023-03-07T12:06:28.729Z,4.83
2023-03-07T12:10:44.086Z,5.50
2023-03-07T12:14:59.186Z,5.20
2023-03-07T12:19:25.941Z,5.40
2023-03-07T12:23:33.278Z,5.93
2023-03-07T12:27:39.457Z,5.90
2023-03-07T12:31:45.811Z,5.60
2023-03-07T12:35:52.058Z,5.97
2023-03-07T12:39:58.678Z,6.13
2023-03-07T12:44:05.214Z,6.00
2023-03-07T12:48:18.985Z,5.33
2023-03-07T12:52:29.555Z,4.77
2023-03-07T12:56:38.901Z,4.37
2023-03-07T13:00:45.900Z,4.23
2023-03-07T13:04:48.766Z,4.10
2023-03-07T13:08:53.209Z,3.93
2023-03-07T13:12:54.698Z,2.90
2023-03-07T13:16:56.183Z,2.80
2023-03-07T13:21:30.137Z,2.53
2023-03-07T13:25:58.988Z,2.53
2023-03-07T13:30:19.393Z,2.43
2023-03-07T13:34:43.476Z,2.27
2023-03-07T13:38:46.388Z,1.90
2023-03-07T13:42:48.838Z,2.20
2023-03-07T13:46:53.490Z,1.50
2023-03-07T13:51:07.847Z,1.80
2023-03-07T13:55:38.480Z,1.80
2023-03-07T13:59:40.349Z,1.83
2023-03-07T14:03:46.812Z,1.60
2023-03-07T14:07:50.042Z,1.80
2023-03-07T14:12:01.383Z,2.60
2023-03-07T14:16:23.751Z,4.50
2023-03-07T14:20:35.021Z,4.63
2023-03-07T14:24:52.405Z,4.57
2023-03-07T14:29:00.670Z,3.67
2023-03-07T14:33:02.309Z,2.90
2023-03-07T14:37:07.463Z,2.00
2023-03-07T14:41:24.176Z,2.40
2023-03-07T14:45:39.324Z,2.67
2023-03-07T14:49:48.880Z,2.93
2023-03-07T14:53:50.710Z,2.40
2023-03-07T14:57:54.931Z,2.57
2023-03-07T15:01:58.075Z,3.57
2023-03-07T15:06:01.612Z,3.00
2023-03-07T15:10:05.523Z,2.40
2023-03-07T15:14:13.166Z,2.00
2023-03-07T15:18:20.852Z,3.47
2023-03-07T15:22:26.389Z,2.00
2023-03-07T15:26:28.003Z,1.60
2023-03-07T15:30:32.294Z,2.17
2023-03-07T15:34:37.424Z,1.90
2023-03-07T15:38:39.694Z,2.43
2023-03-07T15:42:48.993Z,2.43
2023-03-07T15:46:53.377Z,2.80
2023-03-07T15:50:58.982Z,2.93
2023-03-07T15:55:02.870Z,2.90
2023-03-07T15:59:07.750Z,3.70
2023-03-07T16:03:30.521Z,4.13
2023-03-07T16:07:33.504Z,5.10
2023-03-07T16:11:37.706Z,5.40
2023-03-07T16:15:40.247Z,4.90
2023-03-07T16:19:42.519Z,5.07
2023-03-07T16:23:46.563Z,5.13
2023-03-07T16:27:51.991Z,5.03
2023-03-07T16:31:53.621Z,4.20
2023-03-07T16:35:55.143Z,4.03
2023-03-07T16:39:57.909Z,3.70
2023-03-07T16:43:59.382Z,3.93
2023-03-07T16:48:01.765Z,3.50
2023-03-07T16:52:06.492Z,4.30
2023-03-07T16:56:15.235Z,3.90
2023-03-07T17:00:22.198Z,4.30
2023-03-07T17:04:23.632Z,4.30
2023-03-07T17:08:25.094Z,4.70
2023-03-07T17:12:28.154Z,4.73
2023-03-07T17:16:29.967Z,4.80
2023-03-07T17:20:31.536Z,4.43
2023-03-07T17:24:33.083Z,4.23
2023-03-07T17:28:36.325Z,4.40
2023-03-07T17:32:38.060Z,4.50
2023-03-07T17:36:39.549Z,4.63
2023-03-07T17:40:41.854Z,4.53
2023-03-07T17:44:44.817Z,4.63
2023-03-07T17:48:46.557Z,4.70
2023-03-07T17:52:48.307Z,5.53
2023-03-07T17:56:50.109Z,6.37
2023-03-07T18:00:53.343Z,6.07
2023-03-07T18:04:54.899Z,6.40
2023-03-07T18:08:56.684Z,6.80
2023-03-07T18:12:58.239Z,6.30
2023-03-07T18:17:01.844Z,6.27
2023-03-07T18:21:06.576Z,6.97
2023-03-07T18:25:13.575Z,7.33
2023-03-07T18:29:15.916Z,7.10
2023-03-07T18:33:26.143Z,7.70
2023-03-07T18:37:40.497Z,7.40
2023-03-07T18:41:42.223Z,7.87
2023-03-07T18:45:44.657Z,8.37
2023-03-07T18:49:49.683Z,9.07
2023-03-07T18:53:51.458Z,8.73
2023-03-07T18:57:53.669Z,9.33
2023-03-07T19:01:55.570Z,10.37
2023-03-07T19:05:59.923Z,12.68
2023-03-07T19:10:01.603Z,10.10
2023-03-07T19:14:03.820Z,9.80
2023-03-07T19:22:38.315Z,9.13
2023-03-07T19:26:40.174Z,9.77
2023-03-07T19:30:44.239Z,10.47
2023-03-07T19:34:48.842Z,9.60
2023-03-07T19:38:53.814Z,10.37
2023-03-07T19:42:55.436Z,10.10
2023-03-07T19:46:57.132Z,8.10
2023-03-07T19:50:59.425Z,7.70
2023-03-07T19:55:02.918Z,5.77
2023-03-07T19:59:06.260Z,5.40
2023-03-07T20:03:09.601Z,5.77
2023-03-07T20:07:11.263Z,5.50
2023-03-07T20:11:16.314Z,5.80
2023-03-07T20:15:20.193Z,6.17
2023-03-07T20:19:21.772Z,7.07
2023-03-07T20:23:23.511Z,6.63
2023-03-07T20:27:26.710Z,5.90
2023-03-07T20:31:29.340Z,5.03
2023-03-07T20:35:31.098Z,5.33
2023-03-07T20:39:32.845Z,5.63
2023-03-07T20:43:36.034Z,6.37
2023-03-07T20:47:37.734Z,6.00
2023-03-07T20:51:40.127Z,6.17
2023-03-07T20:55:41.834Z,5.50
2023-03-07T20:59:44.943Z,4.93
2023-03-07T21:03:51.626Z,5.00
2023-03-07T21:07:53.307Z,5.30
2023-03-07T21:11:55.746Z,4.70
2023-03-07T21:16:00.663Z,5.20
2023-03-07T21:20:02.608Z,4.73
2023-03-07T21:24:04.909Z,4.90
2023-03-07T21:28:06.785Z,4.33
2023-03-07T21:32:09.991Z,4.27
2023-03-07T21:36:14.390Z,4.10
2023-03-07T21:40:16.564Z,3.80
2023-03-07T21:44:18.327Z,3.80
2023-03-07T21:48:21.768Z,3.73
2023-03-07T21:52:23.427Z,3.33
2023-03-07T21:56:25.463Z,3.60
2023-03-07T22:00:27.198Z,3.73
2023-03-07T22:04:30.318Z,4.20
2023-03-07T22:08:32.173Z,4.00
2023-03-07T22:12:34.262Z,4.50
2023-03-07T22:16:35.802Z,4.43
2023-03-07T22:20:39.484Z,4.20
2023-03-07T22:24:41.126Z,4.50
2023-03-07T22:28:42.882Z,4.10
2023-03-07T22:32:44.809Z,4.40
2023-03-07T22:36:49.972Z,4.40
2023-03-07T22:40:51.566Z,4.10
2023-03-07T22:44:54.563Z,4.07
2023-03-07T22:48:56.772Z,3.97
2023-03-07T22:52:59.860Z,4.17
2023-03-07T22:57:01.342Z,4.13
2023-03-07T23:01:09.912Z,3.90
2023-03-07T23:05:11.512Z,3.70
2023-03-07T23:09:15.048Z,4.10
2023-03-07T23:13:17.280Z,3.10
2023-03-07T23:17:19.048Z,3.73
2023-03-07T23:21:22.333Z,2.90
2023-03-07T23:25:25.354Z,2.87
2023-03-07T23:29:27.075Z,3.10
2023-03-07T23:33:28.711Z,2.80
2023-03-07T23:37:30.347Z,2.73
2023-03-07T23:41:33.467Z,2.80
2023-03-07T23:45:34.983Z,2.90
2023-03-07T23:49:36.657Z,2.87
2023-03-07T23:53:38.427Z,2.80
2023-03-07T23:57:41.956Z,3.20
